North Albemarle, North Carolina
Current Conditions -  °F | °C
As of 10:35 AM on Thursday 30 Oct 2014 (Local Time) from KVUJ Reporting Station
Clear Clear  
Wind Chill: 16°   Ceiling: Unl
Heat Index: 16°   Visibility: 10mi
Dew Point:   Wind: 10mph
Humidity: 45%   Direction: 30°NNE
Pressure: 30.12"   Gusts: NA
Location:  35.3503°N, 80.2174°W
Report Text: KVUJ 301435Z AUTO 03009KT 10SM CLR 17/05 A3012 RMK AO2 T01650045
Loading
Personal Weather Stations






























Interactive Weather Map
Tropical Storm Tracking
New forecast layout! Learn more

10-Day Weather Forecast

Advertisements
Track Severe Weather on mobile